sensor_id;sensor_type;location;lat;lon;timestamp;pressure;altitude;pressure_sealevel;temperature;humidity
67052;BME280;53957;47.222;18.670;2023-05-23T05:29:26;99862.00;;;19.12;100.00
67052;BME280;53957;47.222;18.670;2023-05-23T05:32:31;99860.84;;;19.45;100.00
67052;BME280;53957;47.222;18.670;2023-05-23T05:35:35;99859.53;;;20.10;100.00
67052;BME280;53957;47.222;18.670;2023-05-23T05:38:40;99867.66;;;20.10;100.00
67052;BME280;53957;47.222;18.670;2023-05-23T05:41:44;99847.72;;;19.99;100.00
67052;BME280;53957;47.222;18.670;2023-05-23T05:44:48;99847.31;;;19.97;100.00
67052;BME280;53957;47.222;18.670;2023-05-23T05:47:51;99849.31;;;20.19;100.00
67052;BME280;53957;47.222;18.670;2023-05-23T05:50:55;99848.97;;;20.64;100.00
67052;BME280;53957;47.222;18.670;2023-05-23T05:53:58;99848.91;;;21.03;100.00
67052;BME280;53957;47.222;18.670;2023-05-23T05:57:02;99858.09;;;20.98;100.00
67052;BME280;53957;47.222;18.670;2023-05-23T06:00:11;99856.94;;;21.22;100.00
67052;BME280;53957;47.222;18.670;2023-05-23T06:03:19;99852.81;;;20.82;100.00
67052;BME280;53957;47.222;18.670;2023-05-23T06:06:23;99847.25;;;19.77;100.00
67052;BME280;53957;47.222;18.670;2023-05-23T06:09:26;99851.97;;;20.78;100.00
67052;BME280;53957;47.222;18.670;2023-05-23T06:12:29;99857.63;;;21.43;100.00
67052;BME280;53957;47.222;18.670;2023-05-23T06:15:32;99862.34;;;22.03;100.00
67052;BME280;53957;47.222;18.670;2023-05-23T06:18:35;99857.50;;;20.85;100.00
67052;BME280;53957;47.222;18.670;2023-05-23T06:21:38;99856.03;;;22.60;95.91
67052;BME280;53957;47.222;18.670;2023-05-23T06:24:42;99862.03;;;22.08;98.35
67052;BME280;53957;47.222;18.670;2023-05-23T06:27:44;99860.03;;;22.73;95.78
67052;BME280;53957;47.222;18.670;2023-05-23T06:30:48;99862.50;;;21.83;98.57
67052;BME280;53957;47.222;18.670;2023-05-23T06:33:50;99860.62;;;22.97;97.30
67052;BME280;53957;47.222;18.670;2023-05-23T06:36:54;99859.78;;;23.38;88.19
67052;BME280;53957;47.222;18.670;2023-05-23T06:39:57;99857.97;;;24.37;81.26
67052;BME280;53957;47.222;18.670;2023-05-23T06:43:00;99855.84;;;23.28;87.43
67052;BME280;53957;47.222;18.670;2023-05-23T06:46:05;99855.69;;;22.65;90.29
67052;BME280;53957;47.222;18.670;2023-05-23T06:49:09;99859.34;;;23.32;85.88
67052;BME280;53957;47.222;18.670;2023-05-23T06:52:17;99861.63;;;23.86;85.33
67052;BME280;53957;47.222;18.670;2023-05-23T06:55:20;99857.25;;;25.42;77.70
67052;BME280;53957;47.222;18.670;2023-05-23T06:58:24;99856.22;;;26.28;72.82
67052;BME280;53957;47.222;18.670;2023-05-23T07:01:29;99855.66;;;25.69;74.42
67052;BME280;53957;47.222;18.670;2023-05-23T07:04:32;99854.38;;;26.70;67.70
67052;BME280;53957;47.222;18.670;2023-05-23T07:07:36;99855.00;;;27.41;62.52
67052;BME280;53957;47.222;18.670;2023-05-23T07:10:39;99849.47;;;25.18;72.68
67052;BME280;53957;47.222;18.670;2023-05-23T07:13:50;99851.63;;;25.99;72.90
67052;BME280;53957;47.222;18.670;2023-05-23T07:16:54;99851.88;;;27.36;65.22
67052;BME280;53957;47.222;18.670;2023-05-23T07:19:58;99842.84;;;25.37;71.82
67052;BME280;53957;47.222;18.670;2023-05-23T07:23:01;99851.63;;;25.99;71.14
67052;BME280;53957;47.222;18.670;2023-05-23T07:26:04;99842.72;;;26.62;75.11
67052;BME280;53957;47.222;18.670;2023-05-23T11:44:27;99737.97;;;29.02;42.79
67052;BME280;53957;47.222;18.670;2023-05-23T11:47:30;99728.75;;;28.45;41.37
67052;BME280;53957;47.222;18.670;2023-05-23T11:50:33;99736.47;;;28.98;41.62
67052;BME280;53957;47.222;18.670;2023-05-23T11:53:46;99736.91;;;29.16;42.15
67052;BME280;53957;47.222;18.670;2023-05-23T11:56:49;99719.47;;;28.39;40.19
67052;BME280;53957;47.222;18.670;2023-05-23T11:59:53;99712.53;;;28.54;40.40
67052;BME280;53957;47.222;18.670;2023-05-23T12:02:56;99700.09;;;28.50;40.50
67052;BME280;53957;47.222;18.670;2023-05-23T12:05:59;99701.97;;;28.53;40.39
67052;BME280;53957;47.222;18.670;2023-05-23T12:09:04;99696.22;;;28.71;39.14
67052;BME280;53957;47.222;18.670;2023-05-23T12:12:08;99688.94;;;28.13;38.87
67052;BME280;53957;47.222;18.670;2023-05-23T12:15:11;99685.41;;;28.36;38.83
67052;BME280;53957;47.222;18.670;2023-05-23T12:18:14;99680.22;;;28.18;40.66
67052;BME280;53957;47.222;18.670;2023-05-23T12:21:17;99676.22;;;28.47;39.71
67052;BME280;53957;47.222;18.670;2023-05-23T12:24:22;99678.47;;;28.52;40.20
67052;BME280;53957;47.222;18.670;2023-05-23T12:27:29;99669.38;;;28.58;41.77
67052;BME280;53957;47.222;18.670;2023-05-23T12:30:42;99652.91;;;28.35;45.05
67052;BME280;53957;47.222;18.670;2023-05-23T12:33:46;99660.34;;;29.02;44.12
67052;BME280;53957;47.222;18.670;2023-05-23T12:37:00;99665.19;;;28.94;40.64
67052;BME280;53957;47.222;18.670;2023-05-23T12:40:10;99670.59;;;27.52;42.61
67052;BME280;53957;47.222;18.670;2023-05-23T12:43:14;99657.09;;;28.19;43.48
67052;BME280;53957;47.222;18.670;2023-05-23T12:46:17;99656.75;;;27.90;45.35
67052;BME280;53957;47.222;18.670;2023-05-23T12:49:20;99653.34;;;27.82;43.73
67052;BME280;53957;47.222;18.670;2023-05-23T12:52:23;99650.37;;;28.24;43.27
67052;BME280;53957;47.222;18.670;2023-05-23T12:55:26;99645.22;;;28.50;40.89
67052;BME280;53957;47.222;18.670;2023-05-23T12:58:32;99646.72;;;28.31;40.28
67052;BME280;53957;47.222;18.670;2023-05-23T13:01:36;99635.84;;;27.48;40.99
67052;BME280;53957;47.222;18.670;2023-05-23T13:04:38;99637.31;;;27.22;42.74
67052;BME280;53957;47.222;18.670;2023-05-23T13:07:41;99633.22;;;27.38;40.48
67052;BME280;53957;47.222;18.670;2023-05-23T13:10:45;99632.72;;;27.74;40.90
67052;BME280;53957;47.222;18.670;2023-05-23T13:13:49;99621.53;;;28.16;40.32
67052;BME280;53957;47.222;18.670;2023-05-23T13:16:52;99620.44;;;28.09;39.62
67052;BME280;53957;47.222;18.670;2023-05-23T13:19:55;99610.19;;;28.14;41.55
67052;BME280;53957;47.222;18.670;2023-05-23T13:22:59;99606.06;;;28.02;41.07
67052;BME280;53957;47.222;18.670;2023-05-23T13:26:02;99600.59;;;28.25;40.79
67052;BME280;53957;47.222;18.670;2023-05-23T13:29:06;99598.78;;;28.39;40.60
67052;BME280;53957;47.222;18.670;2023-05-23T13:32:09;99600.47;;;28.33;39.83
67052;BME280;53957;47.222;18.670;2023-05-23T13:35:12;99597.59;;;28.16;40.20
67052;BME280;53957;47.222;18.670;2023-05-23T13:38:19;99602.19;;;27.48;41.56
67052;BME280;53957;47.222;18.670;2023-05-23T13:41:22;99604.97;;;27.44;40.85
67052;BME280;53957;47.222;18.670;2023-05-23T13:44:25;99591.56;;;28.01;43.32
67052;BME280;53957;47.222;18.670;2023-05-23T13:47:28;99610.56;;;27.64;41.97
67052;BME280;53957;47.222;18.670;2023-05-23T13:50:31;99598.22;;;27.22;43.24
67052;BME280;53957;47.222;18.670;2023-05-23T13:53:33;99612.34;;;27.75;44.29
67052;BME280;53957;47.222;18.670;2023-05-23T13:56:37;99615.97;;;28.19;41.15
67052;BME280;53957;47.222;18.670;2023-05-23T13:59:41;99615.50;;;28.24;43.03
67052;BME280;53957;47.222;18.670;2023-05-23T14:02:44;99608.19;;;28.18;41.53
67052;BME280;53957;47.222;18.670;2023-05-23T14:05:47;99614.19;;;28.33;39.54
67052;BME280;53957;47.222;18.670;2023-05-23T14:08:50;99610.31;;;28.06;42.35
67052;BME280;53957;47.222;18.670;2023-05-23T14:11:53;99606.88;;;27.75;43.19
67052;BME280;53957;47.222;18.670;2023-05-23T14:14:56;99603.78;;;27.96;43.71
67052;BME280;53957;47.222;18.670;2023-05-23T14:17:59;99591.19;;;28.26;41.35
67052;BME280;53957;47.222;18.670;2023-05-23T14:21:02;99603.47;;;28.38;42.21
67052;BME280;53957;47.222;18.670;2023-05-23T14:24:05;99589.69;;;28.22;41.13
67052;BME280;53957;47.222;18.670;2023-05-23T14:27:08;99591.38;;;28.36;41.89
67052;BME280;53957;47.222;18.670;2023-05-23T14:30:13;99601.34;;;28.26;44.91
67052;BME280;53957;47.222;18.670;2023-05-23T14:33:15;99587.75;;;27.71;42.05
67052;BME280;53957;47.222;18.670;2023-05-23T14:36:19;99586.75;;;27.85;42.79
67052;BME280;53957;47.222;18.670;2023-05-23T14:39:21;99591.19;;;27.75;43.05
67052;BME280;53957;47.222;18.670;2023-05-23T14:42:24;99595.56;;;27.73;42.14
67052;BME280;53957;47.222;18.670;2023-05-23T14:45:27;99594.16;;;27.88;42.89
67052;BME280;53957;47.222;18.670;2023-05-23T14:48:31;99601.56;;;27.88;42.93
67052;BME280;53957;47.222;18.670;2023-05-23T14:51:33;99589.53;;;27.82;42.72
67052;BME280;53957;47.222;18.670;2023-05-23T14:54:44;99587.03;;;27.67;41.12
67052;BME280;53957;47.222;18.670;2023-05-23T14:57:46;99592.56;;;27.36;43.37
67052;BME280;53957;47.222;18.670;2023-05-23T15:00:50;99584.41;;;27.32;42.74
67052;BME280;53957;47.222;18.670;2023-05-23T15:03:53;99576.75;;;27.75;43.08
67052;BME280;53957;47.222;18.670;2023-05-23T15:06:56;99573.87;;;27.82;42.10
67052;BME280;53957;47.222;18.670;2023-05-23T15:09:59;99580.97;;;27.79;42.10
67052;BME280;53957;47.222;18.670;2023-05-23T15:13:03;99573.56;;;27.76;41.55
67052;BME280;53957;47.222;18.670;2023-05-23T15:16:06;99568.41;;;27.82;40.31
67052;BME280;53957;47.222;18.670;2023-05-23T15:19:09;99569.97;;;27.83;41.88
67052;BME280;53957;47.222;18.670;2023-05-23T15:22:12;99560.94;;;27.83;40.88
67052;BME280;53957;47.222;18.670;2023-05-23T15:25:35;99567.56;;;27.85;39.89
67052;BME280;53957;47.222;18.670;2023-05-23T15:28:51;99558.37;;;27.72;40.47
67052;BME280;53957;47.222;18.670;2023-05-23T15:31:54;99562.06;;;27.61;39.63
67052;BME280;53957;47.222;18.670;2023-05-23T15:34:57;99577.22;;;27.70;41.60
67052;BME280;53957;47.222;18.670;2023-05-23T15:38:00;99577.06;;;27.53;39.90
67052;BME280;53957;47.222;18.670;2023-05-23T15:41:03;99571.66;;;27.19;43.18
67052;BME280;53957;47.222;18.670;2023-05-23T15:44:09;99575.53;;;27.21;40.91
67052;BME280;53957;47.222;18.670;2023-05-23T15:47:16;99572.81;;;26.90;42.15
67052;BME280;53957;47.222;18.670;2023-05-23T15:50:20;99574.69;;;26.62;41.44
67052;BME280;53957;47.222;18.670;2023-05-23T15:53:23;99584.06;;;26.61;43.03
67052;BME280;53957;47.222;18.670;2023-05-23T15:56:26;99586.22;;;26.43;43.38
67052;BME280;53957;47.222;18.670;2023-05-23T15:59:29;99578.91;;;26.32;42.53
67052;BME280;53957;47.222;18.670;2023-05-23T16:02:33;99575.34;;;26.35;43.27
67052;BME280;53957;47.222;18.670;2023-05-23T16:05:36;99574.03;;;26.13;44.52
67052;BME280;53957;47.222;18.670;2023-05-23T16:08:39;99573.59;;;26.18;44.02
67052;BME280;53957;47.222;18.670;2023-05-23T16:11:42;99567.41;;;26.10;46.06
67052;BME280;53957;47.222;18.670;2023-05-23T16:14:44;99559.97;;;26.11;45.57
67052;BME280;53957;47.222;18.670;2023-05-23T16:17:47;99568.22;;;26.07;46.56
67052;BME280;53957;47.222;18.670;2023-05-23T16:20:50;99557.81;;;25.87;47.69
67052;BME280;53957;47.222;18.670;2023-05-23T16:23:53;99566.03;;;25.84;48.97
67052;BME280;53957;47.222;18.670;2023-05-23T16:26:57;99576.81;;;26.02;48.42
67052;BME280;53957;47.222;18.670;2023-05-23T16:30:00;99577.00;;;25.77;48.78
67052;BME280;53957;47.222;18.670;2023-05-23T16:33:03;99596.22;;;25.66;49.58
67052;BME280;53957;47.222;18.670;2023-05-23T16:36:07;99599.41;;;25.57;51.32
67052;BME280;53957;47.222;18.670;2023-05-23T16:39:09;99605.25;;;25.52;50.17
67052;BME280;53957;47.222;18.670;2023-05-23T16:42:13;99602.13;;;25.57;48.60
67052;BME280;53957;47.222;18.670;2023-05-23T16:45:15;99600.28;;;25.32;51.73
67052;BME280;53957;47.222;18.670;2023-05-23T16:48:18;99598.38;;;25.26;54.53
67052;BME280;53957;47.222;18.670;2023-05-23T16:51:22;99604.28;;;25.10;53.45
67052;BME280;53957;47.222;18.670;2023-05-23T16:54:26;99604.34;;;24.99;53.86
67052;BME280;53957;47.222;18.670;2023-05-23T16:57:28;99593.44;;;24.91;52.97
67052;BME280;53957;47.222;18.670;2023-05-23T17:00:31;99597.81;;;24.82;52.92
67052;BME280;53957;47.222;18.670;2023-05-23T17:03:34;99608.66;;;24.89;53.23
67052;BME280;53957;47.222;18.670;2023-05-23T17:06:37;99609.47;;;24.79;54.14
67052;BME280;53957;47.222;18.670;2023-05-23T17:09:40;99611.47;;;24.67;54.86
67052;BME280;53957;47.222;18.670;2023-05-23T17:12:43;99609.50;;;24.57;55.51
67052;BME280;53957;47.222;18.670;2023-05-23T17:15:45;99604.09;;;24.46;55.19
67052;BME280;53957;47.222;18.670;2023-05-23T17:18:49;99606.81;;;24.35;56.63
67052;BME280;53957;47.222;18.670;2023-05-23T17:21:52;99607.22;;;24.34;55.63
67052;BME280;53957;47.222;18.670;2023-05-23T17:24:54;99604.09;;;24.21;55.36
67052;BME280;53957;47.222;18.670;2023-05-23T17:27:57;99614.63;;;24.19;55.63
67052;BME280;53957;47.222;18.670;2023-05-23T17:31:00;99669.44;;;23.88;66.76
67052;BME280;53957;47.222;18.670;2023-05-23T17:34:03;99678.97;;;23.24;69.70
67052;BME280;53957;47.222;18.670;2023-05-23T17:37:06;99685.03;;;22.40;76.25
67052;BME280;53957;47.222;18.670;2023-05-23T17:40:10;99683.03;;;21.92;76.96
67052;BME280;53957;47.222;18.670;2023-05-23T17:43:14;99700.53;;;21.61;78.61
67052;BME280;53957;47.222;18.670;2023-05-23T17:46:16;99721.97;;;21.12;84.40
67052;BME280;53957;47.222;18.670;2023-05-23T17:49:19;99744.00;;;20.60;91.00
67052;BME280;53957;47.222;18.670;2023-05-23T17:52:23;99739.84;;;20.20;95.20
67052;BME280;53957;47.222;18.670;2023-05-23T17:55:26;99746.84;;;20.21;97.30
67052;BME280;53957;47.222;18.670;2023-05-23T17:58:29;99743.72;;;20.00;99.51
67052;BME280;53957;47.222;18.670;2023-05-23T18:01:32;99733.25;;;19.78;100.00
67052;BME280;53957;47.222;18.670;2023-05-23T18:04:36;99742.06;;;19.75;100.00
67052;BME280;53957;47.222;18.670;2023-05-23T18:07:39;99733.19;;;19.75;99.95
67052;BME280;53957;47.222;18.670;2023-05-23T18:10:42;99729.97;;;19.69;100.00
67052;BME280;53957;47.222;18.670;2023-05-23T18:13:49;99728.91;;;19.54;100.00
67052;BME280;53957;47.222;18.670;2023-05-23T18:16:52;99725.84;;;19.56;99.41
67052;BME280;53957;47.222;18.670;2023-05-23T18:19:55;99729.75;;;19.39;98.28
67052;BME280;53957;47.222;18.670;2023-05-23T18:22:58;99739.97;;;19.29;100.00
67052;BME280;53957;47.222;18.670;2023-05-23T18:26:01;99739.12;;;19.25;100.00
67052;BME280;53957;47.222;18.670;2023-05-23T18:29:04;99749.78;;;19.18;100.00
67052;BME280;53957;47.222;18.670;2023-05-23T18:32:07;99743.94;;;19.00;100.00
67052;BME280;53957;47.222;18.670;2023-05-23T18:35:10;99761.66;;;18.97;100.00
67052;BME280;53957;47.222;18.670;2023-05-23T18:38:13;99762.94;;;18.88;100.00
67052;BME280;53957;47.222;18.670;2023-05-23T18:41:17;99759.72;;;18.82;100.00
67052;BME280;53957;47.222;18.670;2023-05-23T18:44:20;99764.00;;;18.67;100.00
67052;BME280;53957;47.222;18.670;2023-05-23T18:47:25;99753.28;;;18.71;100.00
67052;BME280;53957;47.222;18.670;2023-05-23T18:50:28;99755.63;;;18.56;100.00
67052;BME280;53957;47.222;18.670;2023-05-23T18:53:31;99756.56;;;18.48;100.00
67052;BME280;53957;47.222;18.670;2023-05-23T18:56:34;99761.03;;;18.56;100.00
67052;BME280;53957;47.222;18.670;2023-05-23T18:59:38;99754.12;;;18.43;100.00
67052;BME280;53957;47.222;18.670;2023-05-23T19:02:41;99761.97;;;18.48;100.00
67052;BME280;53957;47.222;18.670;2023-05-23T19:05:47;99761.97;;;18.48;100.00
67052;BME280;53957;47.222;18.670;2023-05-23T19:08:50;99770.16;;;18.35;100.00
67052;BME280;53957;47.222;18.670;2023-05-23T19:11:53;99778.25;;;18.35;100.00
67052;BME280;53957;47.222;18.670;2023-05-23T19:14:56;99781.13;;;18.43;100.00
67052;BME280;53957;47.222;18.670;2023-05-23T19:18:00;99783.09;;;18.58;100.00
67052;BME280;53957;47.222;18.670;2023-05-23T19:21:04;99790.00;;;18.27;100.00
67052;BME280;53957;47.222;18.670;2023-05-23T19:24:07;99793.41;;;18.40;100.00
67052;BME280;53957;47.222;18.670;2023-05-23T19:27:10;99793.59;;;18.47;100.00
67052;BME280;53957;47.222;18.670;2023-05-23T19:30:13;99799.62;;;18.57;100.00
67052;BME280;53957;47.222;18.670;2023-05-23T19:33:17;99791.09;;;18.10;100.00
67052;BME280;53957;47.222;18.670;2023-05-23T19:36:20;99801.13;;;17.85;100.00
67052;BME280;53957;47.222;18.670;2023-05-23T19:39:23;99803.41;;;18.24;100.00
67052;BME280;53957;47.222;18.670;2023-05-23T19:42:27;99809.09;;;17.94;100.00
67052;BME280;53957;47.222;18.670;2023-05-23T19:45:30;99802.34;;;18.00;100.00
67052;BME280;53957;47.222;18.670;2023-05-23T19:48:33;99807.69;;;17.71;100.00
67052;BME280;53957;47.222;18.670;2023-05-23T19:51:37;99797.50;;;17.52;100.00
67052;BME280;53957;47.222;18.670;2023-05-23T19:54:41;99820.53;;;17.50;100.00
67052;BME280;53957;47.222;18.670;2023-05-23T19:57:43;99820.91;;;17.48;100.00
67052;BME280;53957;47.222;18.670;2023-05-23T20:00:47;99833.69;;;17.51;100.00
67052;BME280;53957;47.222;18.670;2023-05-23T20:03:50;99839.50;;;17.78;100.00
67052;BME280;53957;47.222;18.670;2023-05-23T20:06:52;99835.53;;;18.00;100.00
67052;BME280;53957;47.222;18.670;2023-05-23T20:09:56;99822.06;;;17.88;100.00
67052;BME280;53957;47.222;18.670;2023-05-23T20:12:59;99823.66;;;17.77;100.00
67052;BME280;53957;47.222;18.670;2023-05-23T20:16:02;99820.53;;;17.62;100.00
67052;BME280;53957;47.222;18.670;2023-05-23T20:19:05;99815.25;;;17.66;100.00
67052;BME280;53957;47.222;18.670;2023-05-23T20:22:09;99823.69;;;17.52;100.00
67052;BME280;53957;47.222;18.670;2023-05-23T20:25:11;99831.09;;;17.55;100.00
